aviador You're here:

RKTU Decoded Metar

CHONGJU in KOREA
Report Time2017-11-24 09:00:00
UTC Time2017-11-24 09:14:42
Flight Rules vfr VFR
Wind220° at 05 kt
W.Decomp.*RWY 24: 4.9 kt HW 1 kt LCW
W.Rank220° ranks 9
Current wind is above 220° avg. (4.7)
Visibility9999 m
Phenomena:N/A
Clouds:Scattered 040 Hf
Expected CloudBase > 1,200 ft AGL from Temp-Dew spread
CeilingNone
Temp-1°C (ISA -16)
Dew Point-4°C (80% RH)
AAT-5.3°C
QNH1027 hPa
Density Alt-2,103 ft
Elevation217 ft
Report Wrong Elevation
Raw Report
RKTU 240900Z 22005KT 9999 SCT040 M01/M04 Q1027 NOSIG=

Extra information for RKTU:More info

Metar Taf Metar & Taf Last 4 Metars F.Rules Stats Wind Profile Meteogram Temp Stats Airport Information Weather charts Add Link Nearby VenuesMetar ALERT Operation Metar Decoded Social comments